Time;durP1;ratioP1;P1;durP2;ratioP2;P2;SDS_P1;SDS_P2;PMS_P1;PMS_P2;Temp;Humidity;BMP_temperature;BMP_pressure;BME280_temperature;BME280_humidity;BME280_pressure;Samples;Min_cycle;Max_cycle;Signal;HPM_P1;HPM_P2
2021/05/27 00:02:23;;;;;;;11.02;5.57;;;11.80;92.30;;;;;;4936809;29;20023;-77
2021/05/27 00:04:48;;;;;;;12.80;5.90;;;11.80;92.30;;;;;;4936483;29;20036;-79
2021/05/27 00:07:14;;;;;;;14.15;6.32;;;11.70;92.20;;;;;;4935791;29;20031;-79
2021/05/27 00:09:40;;;;;;;13.40;6.70;;;11.70;92.20;;;;;;4937224;29;20052;-78
2021/05/27 00:12:05;;;;;;;12.10;5.50;;;11.70;92.30;;;;;;4936718;29;20122;-79
2021/05/27 00:14:31;;;;;;;11.85;5.03;;;11.70;92.30;;;;;;4919740;29;20375;-79
2021/05/27 00:16:57;;;;;;;11.85;5.53;;;11.70;92.30;;;;;;4936324;29;20506;-79
2021/05/27 00:19:22;;;;;;;15.10;5.70;;;11.70;92.40;;;;;;4936558;29;20032;-79
2021/05/27 00:21:48;;;;;;;11.23;5.57;;;11.70;92.40;;;;;;4919685;29;20463;-79
2021/05/27 00:24:13;;;;;;;12.38;5.55;;;11.60;92.70;;;;;;4951365;29;20031;-79
2021/05/27 00:26:41;;;;;;;12.88;5.63;;;11.60;93.10;;;;;;4951383;29;20031;-79
2021/05/27 00:29:08;;;;;;;16.23;6.32;;;11.50;93.30;;;;;;4936120;29;20273;-78
2021/05/27 00:31:34;;;;;;;15.25;5.72;;;11.30;93.70;;;;;;4936779;29;20048;-79
2021/05/27 00:34:00;;;;;;;10.63;5.85;;;11.30;93.90;;;;;;4919822;29;20031;-80
2021/05/27 00:36:26;;;;;;;13.95;6.25;;;11.20;93.70;;;;;;4920127;29;20024;-81
2021/05/27 00:38:51;;;;;;;13.20;4.97;;;11.20;93.80;;;;;;4919134;29;20016;-79
2021/05/27 00:41:17;;;;;;;16.75;5.72;;;11.20;93.80;;;;;;4951337;29;20476;-79
2021/05/27 00:43:42;;;;;;;18.83;6.00;;;11.20;93.80;;;;;;4951119;29;20491;-80
2021/05/27 00:46:08;;;;;;;11.57;5.72;;;11.10;93.80;;;;;;4935599;29;20020;-80
2021/05/27 00:51:18;;;;;;;11.10;5.90;;;11.20;94.00;;;;;;4935627;29;20463;-79
2021/05/27 00:53:43;;;;;;;13.38;6.07;;;11.10;93.90;;;;;;4919228;29;20110;-80
2021/05/27 00:56:10;;;;;;;13.73;6.13;;;11.10;94.00;;;;;;4935437;29;20360;-80
2021/05/27 00:58:36;;;;;;;13.75;6.28;;;11.10;94.20;;;;;;4936128;29;20039;-80
2021/05/27 01:01:03;;;;;;;13.25;6.10;;;11.10;94.20;;;;;;4935789;29;20019;-80
2021/05/27 01:03:29;;;;;;;17.27;6.38;;;11.10;94.30;;;;;;4919089;29;20409;-80
2021/05/27 01:05:54;;;;;;;11.20;5.22;;;11.00;94.40;;;;;;4935337;29;20020;-80
2021/05/27 01:08:20;;;;;;;14.70;6.28;;;11.10;94.50;;;;;;4935369;29;20440;-79
2021/05/27 01:10:45;;;;;;;15.07;6.10;;;11.10;94.50;;;;;;4935671;29;20028;-80
2021/05/27 01:13:11;;;;;;;12.70;6.63;;;11.00;94.70;;;;;;4934203;29;20383;-80
2021/05/27 01:15:39;;;;;;;19.35;6.15;;;11.00;95.00;;;;;;4935842;29;20024;-80
2021/05/27 01:18:08;;;;;;;12.98;5.90;;;10.90;95.10;;;;;;4935534;29;20020;-80
2021/05/27 01:20:34;;;;;;;12.02;5.80;;;10.90;95.60;;;;;;4935580;29;20032;-82
2021/05/27 01:23:00;;;;;;;17.00;6.10;;;10.90;95.70;;;;;;4935474;29;20512;-82
2021/05/27 01:25:27;;;;;;;16.23;6.03;;;10.90;95.80;;;;;;4936058;29;20031;-83
2021/05/27 01:27:52;;;;;;;12.20;6.00;;;10.90;96.20;;;;;;4917889;29;20047;-84
2021/05/27 01:30:19;;;;;;;19.42;7.40;;;10.80;96.20;;;;;;4934375;29;20456;-84
2021/05/27 01:32:45;;;;;;;14.35;6.68;;;10.80;96.50;;;;;;4934275;29;20027;-84
2021/05/27 01:35:22;;;;;;;15.18;6.93;;;10.80;96.50;;;;;;4933831;29;20027;-84
2021/05/27 01:37:49;;;;;;;14.77;5.95;;;10.70;96.60;;;;;;4950377;29;20031;-84
2021/05/27 01:40:18;;;;;;;17.70;6.18;;;10.70;96.90;;;;;;4949610;29;20102;-83
2021/05/27 01:42:44;;;;;;;13.40;5.18;;;10.70;97.00;;;;;;4918180;29;20114;-84
2021/05/27 01:45:13;;;;;;;16.40;5.65;;;10.70;97.10;;;;;;4934984;29;20173;-82
2021/05/27 01:47:40;;;;;;;16.27;6.53;;;10.70;97.20;;;;;;4935486;29;20037;-83
2021/05/27 01:50:09;;;;;;;15.25;5.25;;;10.60;97.30;;;;;;4933718;29;20026;-84
2021/05/27 01:52:35;;;;;;;20.83;5.70;;;10.60;97.30;;;;;;4936348;29;20023;-83
2021/05/27 01:55:00;;;;;;;17.63;6.38;;;10.60;97.50;;;;;;4937187;29;20032;-86
2021/05/27 01:57:26;;;;;;;13.70;5.53;;;10.60;97.60;;;;;;4935482;29;20428;-84
2021/05/27 01:59:52;;;;;;;17.48;5.90;;;10.60;97.70;;;;;;4935327;29;20031;-84
2021/05/27 02:02:17;;;;;;;11.25;5.80;;;10.60;97.70;;;;;;4937069;29;20031;-83
2021/05/27 02:04:43;;;;;;;17.60;6.72;;;10.50;98.00;;;;;;4938327;29;20035;-84
2021/05/27 02:07:14;;;;;;;15.70;6.40;;;10.50;98.10;;;;;;4933655;29;20032;-85
2021/05/27 02:09:40;;;;;;;18.58;5.68;;;10.50;98.00;;;;;;4949565;29;20040;-84
2021/05/27 02:12:06;;;;;;;16.67;6.43;;;10.50;98.10;;;;;;4949095;29;20028;-82
2021/05/27 02:14:33;;;;;;;17.80;6.65;;;10.50;98.20;;;;;;4933680;29;20023;-84
2021/05/27 02:16:59;;;;;;;13.15;5.85;;;10.50;98.30;;;;;;4934243;29;20155;-83
2021/05/27 02:19:24;;;;;;;15.55;6.55;;;10.50;98.30;;;;;;4934739;29;20028;-84
2021/05/27 02:21:50;;;;;;;13.93;5.90;;;10.50;98.40;;;;;;4934854;29;20030;-83
2021/05/27 02:24:16;;;;;;;16.48;6.82;;;10.50;98.30;;;;;;4934080;29;20050;-82
2021/05/27 02:26:42;;;;;;;19.83;7.07;;;10.50;98.70;;;;;;4934971;29;20167;-83
2021/05/27 02:29:08;;;;;;;15.63;6.97;;;10.50;98.40;;;;;;4932986;29;20067;-83
2021/05/27 02:31:34;;;;;;;19.15;6.75;;;10.50;98.50;;;;;;4934956;29;20110;-83
2021/05/27 02:34:00;;;;;;;14.35;5.80;;;10.40;98.50;;;;;;4933039;29;20146;-84
2021/05/27 02:36:26;;;;;;;17.17;6.47;;;10.40;98.60;;;;;;4933772;29;20429;-82
2021/05/27 02:38:53;;;;;;;15.50;6.93;;;10.40;98.70;;;;;;4950134;29;20103;-83
2021/05/27 02:41:19;;;;;;;19.10;6.63;;;10.40;98.80;;;;;;4917211;29;20031;-83
2021/05/27 02:43:46;;;;;;;15.55;6.43;;;10.50;98.80;;;;;;4935027;29;20032;-83
2021/05/27 02:46:11;;;;;;;12.88;6.18;;;10.50;98.80;;;;;;4948724;29;20024;-84
2021/05/27 02:48:37;;;;;;;15.88;5.97;;;10.40;98.80;;;;;;4934659;29;20050;-82
2021/05/27 02:51:04;;;;;;;15.18;6.43;;;10.50;98.90;;;;;;4933910;29;20039;-83
2021/05/27 02:53:31;;;;;;;16.48;6.03;;;10.40;98.90;;;;;;4949397;29;20024;-84
2021/05/27 02:55:56;;;;;;;14.45;5.57;;;10.40;98.80;;;;;;4934607;29;20020;-83
2021/05/27 02:58:22;;;;;;;15.45;5.53;;;10.40;98.90;;;;;;4932702;29;20035;-85
2021/05/27 03:00:48;;;;;;;15.90;6.45;;;10.40;99.00;;;;;;4933392;29;20092;-84
2021/05/27 03:03:20;;;;;;;15.32;6.40;;;10.40;99.10;;;;;;4948813;29;20016;-84
2021/05/27 03:05:46;;;;;;;13.90;6.07;;;10.40;99.10;;;;;;4917371;29;20031;-85
2021/05/27 03:08:12;;;;;;;17.50;6.53;;;10.40;99.10;;;;;;4947970;29;20051;-84
2021/05/27 03:10:37;;;;;;;17.35;6.95;;;10.40;99.10;;;;;;4934136;29;20028;-83
2021/05/27 03:13:03;;;;;;;20.83;6.88;;;10.30;99.10;;;;;;4932700;29;20086;-84
2021/05/27 03:15:29;;;;;;;19.52;6.93;;;10.30;99.10;;;;;;4938078;29;20024;-83
2021/05/27 03:17:59;;;;;;;20.65;7.43;;;10.30;99.20;;;;;;4937675;29;20028;-84
2021/05/27 03:20:24;;;;;;;17.02;7.65;;;10.30;99.40;;;;;;4938010;29;20028;-82
2021/05/27 03:22:50;;;;;;;23.40;7.05;;;10.30;99.40;;;;;;4937876;29;20030;-84
2021/05/27 03:25:16;;;;;;;17.02;7.63;;;10.30;99.40;;;;;;4920278;29;20127;-85
2021/05/27 03:27:41;;;;;;;17.42;6.63;;;10.20;99.40;;;;;;4938253;29;20032;-82
2021/05/27 03:30:08;;;;;;;21.05;7.32;;;10.30;99.40;;;;;;4937252;29;20028;-82
2021/05/27 03:32:33;;;;;;;18.60;6.93;;;10.20;99.40;;;;;;4920466;29;20027;-84
2021/05/27 03:34:59;;;;;;;18.63;7.13;;;10.20;99.50;;;;;;4937445;29;20033;-82
2021/05/27 03:37:25;;;;;;;20.50;7.57;;;10.20;99.50;;;;;;4937197;29;20030;-83
2021/05/27 03:42:34;;;;;;;16.25;6.72;;;10.20;99.60;;;;;;4937998;29;20046;-84
2021/05/27 03:45:04;;;;;;;21.35;7.03;;;10.20;99.60;;;;;;4920745;29;20040;-84
2021/05/27 03:47:30;;;;;;;18.77;6.93;;;10.20;99.60;;;;;;4942110;29;20070;-85
2021/05/27 03:49:56;;;;;;;17.92;7.32;;;10.20;99.60;;;;;;4918772;29;20119;-84
2021/05/27 03:52:21;;;;;;;14.65;7.40;;;10.20;99.70;;;;;;4919728;29;20028;-85
2021/05/27 03:54:47;;;;;;;22.17;6.45;;;10.20;99.70;;;;;;4920364;29;20027;-84
2021/05/27 03:57:12;;;;;;;17.67;6.80;;;10.20;99.60;;;;;;4919408;29;20020;-87
2021/05/27 04:02:22;;;;;;;19.75;6.03;;;10.20;99.70;;;;;;4935423;29;20400;-85
2021/05/27 04:07:42;;;;;;;13.32;5.97;;;10.20;99.70;;;;;;4901778;29;20032;-84
2021/05/27 04:10:09;;;;;;;13.25;6.82;;;10.20;99.80;;;;;;4938805;29;20474;-84
2021/05/27 04:15:26;;;;;;;15.77;6.63;;;10.20;99.80;;;;;;4956124;29;20050;-84
2021/05/27 04:17:58;;;;;;;19.27;6.82;;;10.20;99.70;;;;;;4956583;29;20055;-86
2021/05/27 04:20:24;;;;;;;;;;;10.20;99.80;;;;;;4956496;29;20079;-85
2021/05/27 04:22:51;;;;;;;14.45;5.75;;;10.10;99.70;;;;;;4956567;29;19913;-84
2021/05/27 04:25:18;;;;;;;13.20;5.93;;;10.10;99.80;;;;;;4938692;29;20027;-82
2021/05/27 04:27:45;;;;;;;13.60;5.80;;;10.10;99.90;;;;;;4939261;29;20028;-83
2021/05/27 04:30:16;;;;;;;16.90;5.40;;;10.20;99.90;;;;;;4956416;29;20037;-83
2021/05/27 04:32:57;;;;;;;17.02;6.22;;;10.20;99.90;;;;;;4955365;29;20023;-84
2021/05/27 04:35:24;;;;;;;13.02;5.45;;;10.20;99.90;;;;;;4937948;29;20062;-83
2021/05/27 04:37:50;;;;;;;19.08;6.15;;;10.20;99.90;;;;;;4938641;29;20043;-82
2021/05/27 04:40:16;;;;;;;16.52;5.95;;;10.30;99.90;;;;;;4955882;29;20107;-84
2021/05/27 04:42:42;;;;;;;17.98;5.90;;;10.30;99.90;;;;;;4955618;29;20067;-83
2021/05/27 04:45:08;;;;;;;14.32;5.43;;;10.30;99.90;;;;;;4955143;29;20486;-84
2021/05/27 04:47:34;;;;;;;16.20;6.18;;;10.30;99.90;;;;;;4957785;29;20031;-83
2021/05/27 04:50:00;;;;;;;20.73;6.55;;;10.30;99.90;;;;;;4939313;29;20029;-83
2021/05/27 04:52:25;;;;;;;23.50;6.40;;;10.30;99.90;;;;;;4955749;29;20015;-84
2021/05/27 04:54:51;;;;;;;14.80;5.93;;;10.30;99.90;;;;;;4957456;29;20514;-84
2021/05/27 04:57:17;;;;;;;14.93;5.78;;;10.30;99.90;;;;;;4940362;29;20034;-82
2021/05/27 04:59:42;;;;;;;14.70;6.45;;;10.30;99.90;;;;;;4938541;29;20379;-84
2021/05/27 05:02:08;;;;;;;14.20;5.25;;;10.20;99.90;;;;;;4937566;29;20166;-85
2021/05/27 05:04:34;;;;;;;13.27;5.15;;;10.20;99.90;;;;;;4938159;29;20031;-82
2021/05/27 05:06:59;;;;;;;13.25;4.60;;;10.20;99.90;;;;;;4955391;29;20078;-83
2021/05/27 05:09:25;;;;;;;12.75;5.60;;;10.20;99.90;;;;;;4952806;29;20055;-83
2021/05/27 05:11:51;;;;;;;12.90;5.13;;;10.30;99.90;;;;;;4938086;29;20031;-83
2021/05/27 05:14:16;;;;;;;13.30;5.45;;;10.40;99.90;;;;;;4937305;29;20047;-83
2021/05/27 05:16:42;;;;;;;17.10;6.15;;;10.40;99.90;;;;;;4955627;29;20058;-84
2021/05/27 05:19:08;;;;;;;14.70;5.50;;;10.40;99.90;;;;;;4955263;29;20110;-84
2021/05/27 05:21:33;;;;;;;17.20;6.20;;;10.40;99.90;;;;;;4937603;29;20371;-83
2021/05/27 05:23:59;;;;;;;17.25;5.28;;;10.40;99.90;;;;;;4938021;29;20534;-83
2021/05/27 05:26:24;;;;;;;13.68;5.38;;;10.30;99.90;;;;;;4938595;29;20037;-83
2021/05/27 05:28:50;;;;;;;16.23;6.20;;;10.30;99.90;;;;;;4957443;29;20033;-82
2021/05/27 05:31:16;;;;;;;17.58;5.40;;;10.30;99.90;;;;;;4958111;29;20027;-85
2021/05/27 05:33:43;;;;;;;20.38;6.50;;;10.30;99.90;;;;;;4958247;29;20027;-84
2021/05/27 05:36:09;;;;;;;18.60;5.90;;;10.30;99.90;;;;;;4954833;28;20081;-85
2021/05/27 05:38:34;;;;;;;13.88;6.32;;;10.30;99.90;;;;;;4954680;29;20027;-83
2021/05/27 05:41:01;;;;;;;12.02;5.10;;;10.30;99.90;;;;;;4953438;29;20032;-83
2021/05/27 05:43:27;;;;;;;16.23;6.15;;;10.30;99.90;;;;;;4954289;29;20023;-84
2021/05/27 05:45:52;;;;;;;15.32;6.15;;;10.30;99.90;;;;;;4953671;29;20019;-84
2021/05/27 05:48:18;;;;;;;15.35;6.35;;;10.40;99.90;;;;;;4936802;29;20023;-85
2021/05/27 05:50:50;;;;;;;15.88;6.28;;;10.30;99.90;;;;;;4937521;29;20063;-84
2021/05/27 05:53:21;;;;;;;18.75;5.60;;;10.30;99.90;;;;;;4937939;29;20054;-84
2021/05/27 05:55:48;;;;;;;12.52;5.65;;;10.40;99.90;;;;;;4938853;29;20031;-85
2021/05/27 05:58:14;;;;;;;18.65;6.53;;;10.30;99.90;;;;;;4936810;29;20023;-85
2021/05/27 06:00:39;;;;;;;17.23;5.47;;;10.40;99.90;;;;;;4954712;29;20371;-84
2021/05/27 06:03:05;;;;;;;18.25;6.57;;;10.40;99.90;;;;;;4937272;29;20157;-84
2021/05/27 06:05:32;;;;;;;11.73;5.80;;;10.40;99.90;;;;;;4936716;29;20038;-83
2021/05/27 06:07:57;;;;;;;16.27;4.60;;;10.40;99.90;;;;;;4937016;29;20070;-81
2021/05/27 06:10:24;;;;;;;15.70;5.93;;;10.40;99.90;;;;;;4936224;29;20448;-83
2021/05/27 06:12:51;;;;;;;14.63;5.78;;;10.40;99.90;;;;;;4937245;29;20321;-83
2021/05/27 06:15:21;;;;;;;14.88;5.65;;;10.40;99.90;;;;;;4953756;29;20031;-84
2021/05/27 06:17:48;;;;;;;15.48;6.63;;;10.40;99.90;;;;;;4937193;29;20026;-83
2021/05/27 06:20:15;;;;;;;17.83;5.72;;;10.40;99.90;;;;;;4936830;29;20058;-87
2021/05/27 06:22:41;;;;;;;16.33;5.78;;;10.40;99.90;;;;;;4936642;29;20026;-84
2021/05/27 06:25:08;;;;;;;15.60;5.57;;;10.30;99.90;;;;;;4937040;29;20494;-83
2021/05/27 06:27:36;;;;;;;17.20;6.18;;;10.40;99.90;;;;;;4936251;29;20019;-84
2021/05/27 06:30:02;;;;;;;15.85;5.38;;;10.40;99.90;;;;;;4936745;29;20042;-83
2021/05/27 06:32:29;;;;;;;16.50;5.75;;;10.40;99.90;;;;;;4936284;29;20031;-83
2021/05/27 06:34:55;;;;;;;15.43;5.93;;;10.40;99.90;;;;;;4937053;29;20372;-84
2021/05/27 06:37:21;;;;;;;14.00;5.40;;;10.40;99.90;;;;;;4936209;29;20468;-85
2021/05/27 06:39:47;;;;;;;13.93;5.25;;;10.40;99.90;;;;;;4954154;29;20033;-83
2021/05/27 06:42:15;;;;;;;11.63;4.65;;;10.40;99.90;;;;;;4936737;29;20019;-83
2021/05/27 06:44:41;;;;;;;17.17;4.72;;;10.40;99.90;;;;;;4936613;29;20038;-83
2021/05/27 06:47:07;;;;;;;17.70;5.75;;;10.50;99.90;;;;;;4936667;29;20109;-83
2021/05/27 06:49:32;;;;;;;14.73;4.95;;;10.50;99.90;;;;;;4954567;28;20479;-84
2021/05/27 06:52:00;;;;;;;15.73;5.10;;;10.50;99.90;;;;;;4940661;29;20031;-83
2021/05/27 06:54:26;;;;;;;17.00;5.63;;;10.50;99.90;;;;;;4940222;29;20087;-83
2021/05/27 06:56:54;;;;;;;14.68;5.70;;;10.50;99.90;;;;;;4957417;29;20032;-83
2021/05/27 06:59:20;;;;;;;11.52;4.53;;;10.50;99.90;;;;;;4939751;29;20087;-85
2021/05/27 07:01:46;;;;;;;21.13;5.20;;;10.50;99.90;;;;;;4957649;29;20031;-85
2021/05/27 07:04:11;;;;;;;15.85;5.43;;;10.50;99.90;;;;;;4956305;29;20464;-83
2021/05/27 07:06:39;;;;;;;17.67;5.53;;;10.50;99.90;;;;;;4956999;29;20027;-84
2021/05/27 07:09:05;;;;;;;18.83;5.32;;;10.50;99.90;;;;;;4958461;29;20077;-84
2021/05/27 07:11:30;;;;;;;13.75;5.25;;;10.60;99.90;;;;;;4957536;29;20450;-83
2021/05/27 07:13:56;;;;;;;13.90;5.03;;;10.60;99.90;;;;;;4962852;29;20503;-84
2021/05/27 07:16:21;;;;;;;16.85;4.93;;;10.60;99.90;;;;;;4940959;29;20027;-83
2021/05/27 07:18:47;;;;;;;16.65;4.68;;;10.60;99.90;;;;;;4940370;29;20111;-83
2021/05/27 07:21:13;;;;;;;10.52;4.15;;;10.70;99.90;;;;;;4956931;29;20027;-84
2021/05/27 07:23:38;;;;;;;13.93;4.70;;;10.70;99.90;;;;;;4939472;29;20497;-84
2021/05/27 07:26:04;;;;;;;15.93;4.63;;;10.70;99.90;;;;;;4939830;29;20019;-83
2021/05/27 07:28:31;;;;;;;13.02;4.55;;;10.70;99.90;;;;;;4956690;29;20494;-80
2021/05/27 07:31:00;;;;;;;19.23;5.35;;;10.70;99.90;;;;;;4939809;29;20035;-83
2021/05/27 07:33:26;;;;;;;19.88;4.35;;;10.70;99.90;;;;;;4956634;29;20023;-83
2021/05/27 07:35:52;;;;;;;13.05;4.30;;;10.70;99.90;;;;;;4939838;29;20483;-83
2021/05/27 07:38:17;;;;;;;14.43;4.85;;;10.70;99.90;;;;;;4939529;29;20106;-82
2021/05/27 07:40:45;;;;;;;17.85;4.82;;;10.70;99.90;;;;;;4939126;29;20463;-84
2021/05/27 07:43:12;;;;;;;11.27;4.13;;;10.70;99.90;;;;;;4956865;29;20090;-83
2021/05/27 07:45:38;;;;;;;14.60;5.03;;;10.70;99.90;;;;;;4938824;29;20462;-83
2021/05/27 07:48:04;;;;;;;17.23;5.03;;;10.70;99.90;;;;;;4956799;29;20038;-83
2021/05/27 07:50:31;;;;;;;12.90;5.05;;;10.70;99.90;;;;;;4955925;29;20019;-83
2021/05/27 07:52:57;;;;;;;13.52;4.93;;;10.60;99.90;;;;;;4956467;29;20027;-83
2021/05/27 07:55:23;;;;;;;13.55;4.82;;;10.70;99.90;;;;;;4938613;29;20468;-84
2021/05/27 07:57:49;;;;;;;11.73;3.95;;;10.70;99.90;;;;;;4939270;29;20424;-83
2021/05/27 08:00:15;;;;;;;14.52;5.05;;;10.70;99.90;;;;;;4938952;29;20032;-81
2021/05/27 08:02:42;;;;;;;11.68;4.43;;;10.70;99.90;;;;;;4955949;29;20241;-82
2021/05/27 08:05:08;;;;;;;12.57;4.47;;;10.70;99.90;;;;;;4939038;29;20031;-83
2021/05/27 08:07:34;;;;;;;14.75;5.05;;;10.70;99.90;;;;;;4938665;29;20097;-82
2021/05/27 08:09:59;;;;;;;13.48;4.68;;;10.80;99.90;;;;;;4954499;28;20551;-83
2021/05/27 08:12:25;;;;;;;16.83;4.50;;;10.70;99.90;;;;;;4938636;29;20031;-84
2021/05/27 08:14:51;;;;;;;14.07;5.72;;;10.70;99.90;;;;;;4956182;29;20023;-82
2021/05/27 08:17:17;;;;;;;14.98;5.03;;;10.70;99.90;;;;;;4956473;29;20105;-82
2021/05/27 08:19:42;;;;;;;13.25;4.70;;;10.70;99.90;;;;;;4955137;29;20312;-81
2021/05/27 08:22:09;;;;;;;17.45;5.15;;;10.80;99.90;;;;;;4957317;29;20527;-82
2021/05/27 08:24:35;;;;;;;13.48;4.40;;;10.80;99.90;;;;;;4956079;29;20035;-83
2021/05/27 08:27:01;;;;;;;13.18;4.63;;;10.80;99.90;;;;;;4939304;29;20118;-82
2021/05/27 08:29:26;;;;;;;12.05;4.65;;;10.80;99.90;;;;;;4956205;29;20439;-83
2021/05/27 08:31:52;;;;;;;14.65;4.93;;;10.90;99.90;;;;;;4939198;29;20050;-82
2021/05/27 08:34:19;;;;;;;15.38;5.43;;;10.90;99.90;;;;;;4956722;29;20039;-82
2021/05/27 08:36:45;;;;;;;15.15;4.97;;;11.00;99.90;;;;;;4937978;29;20384;-83
2021/05/27 08:39:11;;;;;;;10.50;4.22;;;10.90;99.90;;;;;;4938478;29;20027;-82
2021/05/27 08:41:37;;;;;;;14.73;4.90;;;11.00;99.90;;;;;;4938043;29;20023;-82
2021/05/27 08:44:04;;;;;;;11.40;4.43;;;11.00;99.90;;;;;;4938476;29;20452;-81
2021/05/27 08:46:30;;;;;;;17.75;6.03;;;11.00;99.90;;;;;;4955054;29;20156;-83
2021/05/27 08:48:56;;;;;;;16.33;4.60;;;11.00;99.90;;;;;;4938342;29;20023;-81
2021/05/27 08:51:22;;;;;;;12.40;4.45;;;11.00;99.90;;;;;;4939006;29;20452;-80
2021/05/27 08:53:48;;;;;;;13.38;4.72;;;11.20;99.90;;;;;;4956081;29;20019;-82
2021/05/27 08:56:13;;;;;;;13.02;5.45;;;11.30;99.90;;;;;;4938613;29;20035;-82
2021/05/27 08:58:41;;;;;;;12.85;4.70;;;11.30;99.90;;;;;;4953306;29;20023;-82
2021/05/27 09:01:08;;;;;;;15.98;5.05;;;11.20;99.90;;;;;;4937914;29;20314;-81
2021/05/27 09:03:44;;;;;;;15.50;5.90;;;11.40;99.90;;;;;;4955013;29;20027;-83
2021/05/27 09:06:13;;;;;;;20.00;5.80;;;11.40;99.90;;;;;;4937462;29;20094;-81
2021/05/27 09:08:39;;;;;;;14.63;4.63;;;11.30;99.90;;;;;;4954156;29;20115;-82
2021/05/27 09:11:08;;;;;;;15.65;4.72;;;11.50;99.90;;;;;;4937131;29;20031;-82
2021/05/27 09:13:35;;;;;;;19.13;5.60;;;11.50;99.90;;;;;;4954265;29;20178;-82
2021/05/27 09:16:09;;;;;;;19.05;5.63;;;11.40;99.90;;;;;;4937979;29;20038;-83
2021/05/27 09:18:40;;;;;;;14.40;5.70;;;11.40;99.90;;;;;;4937234;29;20016;-82
2021/05/27 09:21:08;;;;;;;17.35;5.82;;;11.30;99.90;;;;;;4937538;29;20078;-82
2021/05/27 09:23:36;;;;;;;15.20;5.22;;;11.20;99.90;;;;;;4954346;29;20027;-82
2021/05/27 09:26:13;;;;;;;22.67;5.18;;;11.20;99.90;;;;;;4937559;29;20539;-82
2021/05/27 09:28:40;;;;;;;13.32;4.93;;;11.30;99.90;;;;;;4954437;29;20034;-81
2021/05/27 09:31:08;;;;;;;15.30;5.93;;;11.20;99.90;;;;;;4954800;29;20023;-82
2021/05/27 09:33:35;;;;;;;21.83;5.45;;;11.20;99.90;;;;;;4954321;29;20019;-81
2021/05/27 09:36:07;;;;;;;18.65;5.60;;;11.20;99.90;;;;;;4954788;29;20035;-82
2021/05/27 09:38:38;;;;;;;18.10;5.50;;;11.20;99.90;;;;;;4954110;29;20031;-82
2021/05/27 09:41:23;;;;;;;14.32;5.68;;;11.20;99.90;;;;;;4937425;29;20027;-81
2021/05/27 09:43:54;;;;;;;20.55;5.25;;;11.10;99.90;;;;;;4936583;29;20208;-81
2021/05/27 09:46:23;;;;;;;18.73;6.00;;;11.20;99.90;;;;;;4937334;29;20352;-82
2021/05/27 09:49:09;;;;;;;19.90;6.40;;;11.10;99.90;;;;;;4936607;29;20396;-82
2021/05/27 09:51:36;;;;;;;21.67;6.32;;;11.20;99.90;;;;;;4936797;29;20027;-82
2021/05/27 09:54:03;;;;;;;22.75;6.97;;;11.20;99.90;;;;;;4937185;29;20028;-81
2021/05/27 09:56:42;;;;;;;18.23;6.10;;;11.20;99.90;;;;;;4954449;29;20031;-82
2021/05/27 09:59:10;;;;;;;23.02;7.32;;;11.30;99.90;;;;;;4954258;29;20024;-82
2021/05/27 10:01:36;;;;;;;21.02;7.97;;;11.40;99.90;;;;;;4936436;29;20480;-82
2021/05/27 10:04:17;;;;;;;31.13;7.35;;;11.40;99.90;;;;;;4953753;29;20039;-81
2021/05/27 10:06:44;;;;;;;25.13;6.97;;;11.40;99.80;;;;;;4953799;29;20030;-82
2021/05/27 10:09:11;;;;;;;22.75;7.38;;;11.50;99.80;;;;;;4936522;29;20043;-82
2021/05/27 10:11:38;;;;;;;22.85;6.90;;;11.50;99.80;;;;;;4936433;29;20030;-81
2021/05/27 10:14:05;;;;;;;25.65;7.43;;;11.60;99.80;;;;;;4936674;29;20064;-82
2021/05/27 10:16:31;;;;;;;20.02;7.65;;;11.50;99.70;;;;;;4953713;29;20472;-82
2021/05/27 10:18:58;;;;;;;26.35;7.72;;;11.50;99.60;;;;;;4953991;29;20057;-83
2021/05/27 10:21:25;;;;;;;24.42;9.27;;;11.50;99.60;;;;;;4936766;29;20074;-82
2021/05/27 10:23:52;;;;;;;24.13;8.07;;;11.50;99.40;;;;;;4936149;29;20031;-82
2021/05/27 10:26:19;;;;;;;22.35;8.13;;;11.50;99.50;;;;;;4936925;29;20031;-82
2021/05/27 10:28:48;;;;;;;25.40;8.55;;;11.50;99.40;;;;;;4954516;29;20104;-82
2021/05/27 10:31:14;;;;;;;23.98;7.32;;;11.60;99.40;;;;;;4938459;29;20027;-81
2021/05/27 10:33:42;;;;;;;25.65;7.88;;;11.60;99.50;;;;;;4953736;29;20444;-82
2021/05/27 10:36:09;;;;;;;20.63;6.60;;;11.70;99.50;;;;;;4936666;29;20023;-82
2021/05/27 10:41:24;;;;;;;27.65;9.10;;;11.70;99.20;;;;;;4953888;29;20035;-82
2021/05/27 10:43:59;;;;;;;17.77;7.95;;;11.70;99.20;;;;;;4903356;29;20091;-81
2021/05/27 10:46:25;;;;;;;22.92;7.40;;;11.80;99.30;;;;;;4936728;29;20143;-82
2021/05/27 10:48:52;;;;;;;26.08;9.38;;;11.80;99.00;;;;;;4953159;29;20039;-82
2021/05/27 10:51:32;;;;;;;31.30;9.52;;;11.80;98.90;;;;;;4953965;29;20030;-82
2021/05/27 10:54:12;;;;;;;26.50;7.93;;;11.70;99.00;;;;;;4935965;29;20456;-82
2021/05/27 10:56:41;;;;;;;19.25;7.60;;;11.70;99.20;;;;;;4936065;29;20107;-81
2021/05/27 10:59:08;;;;;;;19.35;7.70;;;11.70;99.30;;;;;;4953334;29;20214;-81
2021/05/27 11:01:35;;;;;;;19.38;7.63;;;11.70;99.30;;;;;;4936329;29;20023;-81
2021/05/27 11:04:07;;;;;;;21.23;8.63;;;11.80;99.20;;;;;;4936070;29;20046;-81
2021/05/27 11:06:39;;;;;;;24.65;7.93;;;11.80;99.20;;;;;;4953229;29;20030;-82
2021/05/27 11:09:08;;;;;;;20.45;7.00;;;11.80;99.20;;;;;;4953385;29;20079;-83
2021/05/27 11:11:45;;;;;;;24.75;8.32;;;11.80;99.20;;;;;;4937015;29;20035;-82
2021/05/27 11:14:35;;;;;;;24.63;7.50;;;11.80;99.30;;;;;;4936823;29;20027;-81
2021/05/27 11:17:04;;;;;;;25.52;8.63;;;11.90;99.20;;;;;;4936050;29;20027;-81
2021/05/27 11:25:12;;;;;;;23.08;7.97;;;11.80;99.00;;;;;;4953293;29;20494;-81
2021/05/27 11:27:37;;;;;;;23.35;7.55;;;11.80;99.00;;;;;;4935618;29;20460;-84
2021/05/27 11:30:12;;;;;;;22.60;7.47;;;11.80;99.10;;;;;;4936073;29;20464;-83
2021/05/27 11:32:38;;;;;;;24.38;7.88;;;11.90;99.00;;;;;;4935618;29;20031;-83
2021/05/27 11:35:04;;;;;;;21.17;7.35;;;11.90;98.80;;;;;;4954294;28;20110;-82
2021/05/27 11:37:37;;;;;;;21.25;6.95;;;11.90;98.90;;;;;;4939647;29;20486;-81
2021/05/27 11:40:07;;;;;;;22.77;7.30;;;12.00;99.00;;;;;;4939534;29;20031;-81
2021/05/27 11:42:33;;;;;;;24.33;6.88;;;12.00;98.80;;;;;;4956565;29;20102;-81
2021/05/27 11:45:01;;;;;;;20.92;6.65;;;12.00;98.90;;;;;;4956152;29;20047;-81
2021/05/27 11:47:27;;;;;;;25.08;7.35;;;12.10;98.90;;;;;;4939229;29;20383;-80
2021/05/27 11:50:13;;;;;;;18.02;7.53;;;12.20;98.80;;;;;;4938495;29;20111;-81
2021/05/27 11:52:40;;;;;;;23.48;6.95;;;12.20;98.70;;;;;;4938941;29;20179;-82
2021/05/27 11:55:12;;;;;;;19.33;6.78;;;12.50;98.50;;;;;;4940084;29;20027;-81
2021/05/27 11:57:43;;;;;;;17.45;6.05;;;12.70;98.10;;;;;;4956870;29;20035;-81
2021/05/27 12:00:12;;;;;;;19.75;6.63;;;12.80;98.20;;;;;;4939512;29;20031;-81
2021/05/27 12:02:59;;;;;;;27.48;7.72;;;12.90;98.00;;;;;;4940584;29;20023;-82
2021/05/27 12:05:29;;;;;;;19.95;7.90;;;12.90;97.20;;;;;;4940503;29;20122;-81
2021/05/27 12:08:03;;;;;;;20.60;7.75;;;12.80;97.70;;;;;;4940379;29;20026;-80
2021/05/27 12:10:48;;;;;;;25.75;7.88;;;12.80;97.70;;;;;;4956888;29;20074;-82
2021/05/27 12:13:18;;;;;;;19.90;7.10;;;12.80;97.70;;;;;;4938845;29;20115;-81
2021/05/27 12:15:45;;;;;;;17.08;6.68;;;12.80;97.70;;;;;;4938157;29;20412;-82
2021/05/27 12:18:15;;;;;;;20.42;6.10;;;12.80;97.60;;;;;;4938440;29;20071;-81
2021/05/27 12:20:42;;;;;;;15.73;7.15;;;12.80;97.80;;;;;;4938088;29;20114;-83
2021/05/27 12:23:13;;;;;;;18.67;7.40;;;12.90;97.60;;;;;;4955872;29;20030;-81
2021/05/27 12:25:58;;;;;;;14.85;6.45;;;12.80;97.50;;;;;;4955828;29;20079;-82
2021/05/27 12:28:29;;;;;;;14.98;5.72;;;12.70;97.40;;;;;;4938645;29;20114;-80
2021/05/27 12:30:59;;;;;;;;;;;12.60;97.70;;;;;;4938639;29;20476;-82
2021/05/27 12:33:30;;;;;;;14.02;5.88;;;12.60;97.80;;;;;;4955854;29;19906;-81
2021/05/27 12:36:02;;;;;;;17.98;6.95;;;12.70;97.90;;;;;;4955292;29;20032;-81
2021/05/27 12:38:29;;;;;;;16.73;6.15;;;12.80;97.60;;;;;;4956005;29;20087;-81
2021/05/27 12:41:04;;;;;;;16.15;5.13;;;12.90;97.30;;;;;;4953909;29;20098;-81
2021/05/27 12:43:36;;;;;;;21.85;6.60;;;13.10;97.40;;;;;;4938325;29;20388;-81
2021/05/27 12:46:11;;;;;;;18.10;5.93;;;13.40;97.30;;;;;;4936759;29;20387;-81
2021/05/27 12:48:54;;;;;;;13.82;6.32;;;13.60;96.90;;;;;;4938246;29;20055;-81
2021/05/27 12:51:21;;;;;;;15.77;6.25;;;13.70;96.50;;;;;;4938207;29;20035;-81
2021/05/27 12:53:47;;;;;;;19.27;7.25;;;13.60;96.30;;;;;;4954821;29;20031;-83
2021/05/27 12:56:22;;;;;;;14.90;6.45;;;13.50;96.10;;;;;;4955655;29;20484;-81
2021/05/27 12:58:52;;;;;;;11.73;6.28;;;13.40;96.10;;;;;;4937417;29;20023;-82
2021/05/27 13:01:33;;;;;;;13.30;5.45;;;13.30;96.20;;;;;;4955117;29;20471;-81
2021/05/27 13:04:00;;;;;;;11.38;5.15;;;13.30;96.50;;;;;;4937153;29;20046;-82